首页
METAR-TAF:

METAR-TAF

机场 :

温斯顿-塞勒姆, 北卡罗来纳州, 美国

纬度: 36-08-00N, 经度: 080-13-29W, 海拔: 295米

当前天气观测

该预报发布于56分钟前的01:54 UTC
风速4节,风向东转东北
温度 24°C
湿度 74%
气压 1021 hPa
能見度: 16.1公里
阴天层高于11000英尺

METAR: KINT 170154Z AUTO 06004KT 10SM OVC110 24/19 A3015 RMK AO2 SLP200 T02390194

时间: 22:50 (02:50 UTC)

预报

该预报发布于3小时和24分钟前的23:26 UTC
预报有效从17日的 00点(UTC)到 17日的 24点(UTC)
风速4节,风向北转东北
能見度: 10公里
散云层高于2500英尺
多云层高于10000英尺
阴天层高于20000英尺
短暂存在
从 17日的 07点(UTC)到 17日的 09点(UTC)
多云层高于1500英尺
从 17日的 0900点(UTC)
风速6节,风向北转东北
能見度: 8.0公里
阴天层高于500英尺
轻雾
从 17日的 1500点(UTC)
风速7节,风向北转东北
能見度: 10公里
阴天层高于1500英尺
从 17日的 1800点(UTC)
风速6节,风向东北
能見度: 10公里
多云层高于3500英尺
从 17日的 2200点(UTC)
风速4节,风向东北
能見度: 10公里
散云层高于4000英尺
多云层高于10000英尺

TAF: KINT 162326Z 1700/1724 03004KT P6SM SCT025 BKN100 OVC200 TEMPO 1707/1709 BKN015 FM170900 03006KT 5SM BR OVC005 FM171500 03007KT P6SM OVC015 FM171800 04006KT P6SM BKN035 FM172200 05004KT P6SM SCT040 BKN100

超过4000个机场的气象观测和天气预报(METAR&TAF报告)。

可查询的气象台以黄色和红色小点在地图上表示。

将鼠标移到小点上方,可查看气象台名称。

然后点击查看天气观测和预报。

如需切换地图:点击带黑十字的绿色按钮放大地图;点击带横线的绿色按钮缩小地图;或者点击绿色箭头查看邻近地区的地图。


METAR-TAF: